createdAt,value
2023-01-24T00:03:18.648Z,1.64
2023-01-24T00:06:40.225Z,1.59
2023-01-24T00:10:01.957Z,1.55
2023-01-24T00:13:24.706Z,1.53
2023-01-24T00:16:46.482Z,1.48
2023-01-24T00:20:09.402Z,1.40
2023-01-24T00:23:31.154Z,1.46
2023-01-24T00:26:53.011Z,1.56
2023-01-24T00:30:20.972Z,1.50
2023-01-24T00:33:45.094Z,1.46
2023-01-24T00:37:06.721Z,1.48
2023-01-24T00:40:28.406Z,1.44
2023-01-24T00:43:49.771Z,1.49
2023-01-24T00:47:14.375Z,1.46
2023-01-24T00:50:36.433Z,1.49
2023-01-24T00:53:58.208Z,1.51
2023-01-24T00:57:22.321Z,1.51
2023-01-24T01:00:44.119Z,1.52
2023-01-24T01:04:07.662Z,1.45
2023-01-24T01:07:29.518Z,1.42
2023-01-24T01:10:50.750Z,1.38
2023-01-24T01:14:12.614Z,1.40
2023-01-24T01:17:34.455Z,1.35
2023-01-24T01:20:57.075Z,1.29
2023-01-24T01:24:18.649Z,1.36
2023-01-24T01:27:41.402Z,1.41
2023-01-24T01:31:03.633Z,1.37
2023-01-24T01:34:25.667Z,1.35
2023-01-24T01:37:48.719Z,1.38
2023-01-24T01:41:12.249Z,1.34
2023-01-24T01:44:41.531Z,1.36
2023-01-24T01:48:06.954Z,1.38
2023-01-24T01:51:34.196Z,1.41
2023-01-24T01:55:04.153Z,1.40
2023-01-24T01:58:25.982Z,1.32
2023-01-24T02:01:50.602Z,1.32
2023-01-24T02:05:15.599Z,1.29
2023-01-24T02:08:37.453Z,1.30
2023-01-24T02:12:05.024Z,1.10
2023-01-24T02:15:44.032Z,1.05
2023-01-24T02:19:05.698Z,1.10
2023-01-24T02:22:36.918Z,1.11
2023-01-24T02:26:07.506Z,1.15
2023-01-24T02:29:29.486Z,1.11
2023-01-24T02:32:51.304Z,1.13
2023-01-24T02:36:22.610Z,1.15
2023-01-24T02:39:49.939Z,1.01
2023-01-24T02:43:15.203Z,1.06
2023-01-24T02:46:38.189Z,1.07
2023-01-24T02:50:00.383Z,1.10
2023-01-24T02:53:31.392Z,1.09
2023-01-24T02:57:11.050Z,1.08
2023-01-24T03:00:34.176Z,1.14
2023-01-24T03:03:58.175Z,1.20
2023-01-24T03:07:19.590Z,1.22
2023-01-24T03:10:47.804Z,1.26
2023-01-24T03:14:28.777Z,1.30
2023-01-24T03:18:08.955Z,1.37
2023-01-24T03:21:47.774Z,1.36
2023-01-24T03:25:27.454Z,1.37
2023-01-24T03:29:06.097Z,1.40
2023-01-24T03:32:44.962Z,1.41
2023-01-24T03:36:14.706Z,1.43
2023-01-24T03:39:54.746Z,1.41
2023-01-24T03:43:16.363Z,1.43
2023-01-24T03:46:40.980Z,1.41
2023-01-24T03:50:21.050Z,1.29
2023-01-24T03:53:44.019Z,1.34
2023-01-24T03:57:05.792Z,1.35
2023-01-24T04:00:27.704Z,1.37
2023-01-24T04:03:53.377Z,1.38
2023-01-24T04:07:25.730Z,1.41
2023-01-24T04:10:51.813Z,1.39
2023-01-24T04:14:13.736Z,1.39
2023-01-24T04:17:49.871Z,1.39
2023-01-24T04:21:12.923Z,1.39
2023-01-24T04:24:34.753Z,1.38
2023-01-24T04:27:58.460Z,1.39
2023-01-24T04:31:23.327Z,1.40
2023-01-24T04:35:17.791Z,1.41
2023-01-24T04:38:45.432Z,1.42
2023-01-24T04:42:19.504Z,1.22
2023-01-24T04:45:43.255Z,1.20
2023-01-24T04:49:08.708Z,1.25
2023-01-24T04:52:37.096Z,1.21
2023-01-24T04:56:04.845Z,1.21
2023-01-24T04:59:28.326Z,1.13
2023-01-24T05:02:53.747Z,1.15
2023-01-24T05:06:17.119Z,1.20
2023-01-24T05:09:38.953Z,1.16
2023-01-24T05:13:03.900Z,1.15
2023-01-24T05:16:27.204Z,1.14
2023-01-24T05:19:50.443Z,1.05
2023-01-24T05:23:12.723Z,1.06
2023-01-24T05:26:38.268Z,0.99
2023-01-24T05:30:00.193Z,1.06
2023-01-24T05:33:22.001Z,1.11
2023-01-24T05:36:45.169Z,1.11
2023-01-24T05:40:09.606Z,1.15
2023-01-24T05:43:32.768Z,1.14
2023-01-24T05:46:54.470Z,1.14
2023-01-24T05:50:20.359Z,1.06
2023-01-24T05:54:03.211Z,1.00
2023-01-24T05:57:47.050Z,0.89
2023-01-24T06:01:17.327Z,0.87
2023-01-24T06:04:39.787Z,0.78
2023-01-24T06:08:01.613Z,0.79
2023-01-24T06:11:27.457Z,0.77
2023-01-24T06:14:59.940Z,0.76
2023-01-24T06:18:21.873Z,0.79
2023-01-24T06:21:47.112Z,0.79
2023-01-24T06:25:22.701Z,0.81
2023-01-24T06:28:46.284Z,0.86
2023-01-24T06:32:19.638Z,0.86
2023-01-24T06:35:50.402Z,0.94
2023-01-24T06:39:16.427Z,0.90
2023-01-24T06:42:38.649Z,0.85
2023-01-24T06:46:01.795Z,0.87
2023-01-24T06:49:23.498Z,0.94
2023-01-24T06:52:47.379Z,0.94
2023-01-24T06:56:09.840Z,0.94
2023-01-24T06:59:31.265Z,0.84
2023-01-24T07:03:01.591Z,0.92
2023-01-24T07:06:24.166Z,0.92
2023-01-24T07:09:45.631Z,0.94
2023-01-24T07:13:07.780Z,0.86
2023-01-24T07:16:29.346Z,0.91
2023-01-24T07:19:53.574Z,0.97
2023-01-24T07:23:22.524Z,0.98
2023-01-24T07:26:45.731Z,0.93
2023-01-24T07:30:08.566Z,0.70
2023-01-24T07:33:30.371Z,0.77
2023-01-24T07:36:53.446Z,0.61
2023-01-24T07:40:15.114Z,0.63
2023-01-24T07:43:36.919Z,0.71
2023-01-24T07:46:58.690Z,0.74
2023-01-24T07:50:20.202Z,0.82
2023-01-24T07:53:42.975Z,0.76
2023-01-24T07:57:04.502Z,0.85
2023-01-24T08:00:26.530Z,0.92
2023-01-24T08:03:48.292Z,0.83
2023-01-24T08:07:18.639Z,0.93
2023-01-24T08:10:41.794Z,1.01
2023-01-24T08:14:03.367Z,1.09
2023-01-24T08:17:25.197Z,1.00
2023-01-24T08:20:46.757Z,1.00
2023-01-24T08:24:08.984Z,1.06
2023-01-24T08:27:32.548Z,1.11
2023-01-24T08:30:54.964Z,1.20
2023-01-24T08:34:16.802Z,1.28
2023-01-24T08:37:38.138Z,1.30
2023-01-24T08:40:59.862Z,1.23
2023-01-24T08:44:22.947Z,1.29
2023-01-24T08:47:44.700Z,1.27
2023-01-24T08:51:07.848Z,1.32
2023-01-24T08:54:31.652Z,1.30
2023-01-24T08:57:53.483Z,1.28
2023-01-24T09:01:16.359Z,1.13
2023-01-24T09:04:37.830Z,1.18
2023-01-24T09:07:59.689Z,1.22
2023-01-24T09:11:21.254Z,1.22
2023-01-24T09:14:43.098Z,1.29
2023-01-24T09:18:06.374Z,1.37
2023-01-24T09:21:28.088Z,1.34
2023-01-24T09:24:49.401Z,1.29
2023-01-24T09:28:11.440Z,1.36
2023-01-24T09:31:33.516Z,1.40
2023-01-24T09:34:56.509Z,1.48
2023-01-24T09:38:17.841Z,1.43
2023-01-24T09:42:09.672Z,1.44
2023-01-24T09:45:37.633Z,1.48
2023-01-24T09:49:12.741Z,1.42
2023-01-24T09:52:39.464Z,1.37
2023-01-24T09:56:02.380Z,1.45
2023-01-24T09:59:25.917Z,1.42
2023-01-24T10:02:47.657Z,1.50
2023-01-24T10:06:14.885Z,1.58
2023-01-24T10:09:50.214Z,1.66
2023-01-24T10:13:26.969Z,1.63
2023-01-24T10:17:03.409Z,1.69
2023-01-24T10:20:45.198Z,1.69
2023-01-24T10:24:14.592Z,1.63
2023-01-24T10:27:44.340Z,1.70
2023-01-24T10:31:15.473Z,1.70
2023-01-24T10:34:40.425Z,1.71
2023-01-24T10:38:07.628Z,1.79
2023-01-24T10:41:33.414Z,1.84
2023-01-24T10:45:01.345Z,1.91
2023-01-24T10:48:39.917Z,1.93
2023-01-24T10:52:14.696Z,1.94
2023-01-24T10:55:39.183Z,1.84
2023-01-24T10:59:05.445Z,1.95
2023-01-24T11:02:28.736Z,1.97
2023-01-24T11:05:52.810Z,1.97
2023-01-24T11:09:17.049Z,2.02
2023-01-24T11:12:38.844Z,2.09
2023-01-24T11:16:04.947Z,2.05
2023-01-24T11:19:33.324Z,2.11
2023-01-24T11:23:04.024Z,2.14
2023-01-24T11:26:28.622Z,2.19
2023-01-24T11:30:07.932Z,2.22
2023-01-24T11:33:41.305Z,2.26
2023-01-24T11:37:27.666Z,2.29
2023-01-24T11:41:00.562Z,2.25
2023-01-24T11:44:40.634Z,2.30
2023-01-24T11:48:10.391Z,2.34
2023-01-24T11:51:43.642Z,2.38
2023-01-24T11:55:15.949Z,2.42
2023-01-24T11:58:58.822Z,2.46
2023-01-24T12:02:42.902Z,2.49
2023-01-24T12:06:13.566Z,2.50
2023-01-24T12:09:41.770Z,2.45
2023-01-24T12:13:20.681Z,2.51
2023-01-24T12:16:56.072Z,2.51
2023-01-24T12:20:41.810Z,2.55
2023-01-24T12:24:10.172Z,2.55
2023-01-24T12:27:36.239Z,2.45
2023-01-24T12:31:02.881Z,2.49
2023-01-24T12:34:41.761Z,2.51
2023-01-24T12:38:09.210Z,2.55
2023-01-24T12:41:34.182Z,2.46
2023-01-24T12:45:02.459Z,2.48
2023-01-24T12:48:34.939Z,2.32
2023-01-24T12:52:03.570Z,2.34
2023-01-24T12:55:28.035Z,2.28
2023-01-24T12:58:54.011Z,2.24
2023-01-24T13:02:39.061Z,2.11
2023-01-24T13:06:11.775Z,2.17
2023-01-24T13:09:43.935Z,2.23
2023-01-24T13:13:07.455Z,2.21
2023-01-24T13:16:52.712Z,2.18
2023-01-24T13:20:26.559Z,2.13
2023-01-24T13:24:07.661Z,2.14
2023-01-24T13:27:40.792Z,2.20
2023-01-24T13:31:15.917Z,2.27
2023-01-24T13:34:43.162Z,2.15
2023-01-24T13:38:07.742Z,2.10
2023-01-24T13:41:39.572Z,2.12
2023-01-24T13:45:42.333Z,2.16
2023-01-24T13:49:04.565Z,2.15
2023-01-24T13:52:44.747Z,1.93
2023-01-24T13:56:06.822Z,1.99
2023-01-24T13:59:29.976Z,1.98
2023-01-24T14:03:20.487Z,2.09
2023-01-24T14:06:44.530Z,2.18
2023-01-24T14:10:08.243Z,2.21
2023-01-24T14:13:55.640Z,2.23
2023-01-24T14:17:50.611Z,2.28
2023-01-24T14:21:16.068Z,2.33
2023-01-24T14:24:39.772Z,2.29
2023-01-24T14:28:03.163Z,2.33
2023-01-24T14:31:27.468Z,2.34
2023-01-24T14:34:58.825Z,2.37
2023-01-24T14:38:20.776Z,2.39
2023-01-24T14:41:42.996Z,2.39
2023-01-24T14:45:05.086Z,2.39
2023-01-24T14:48:27.434Z,2.33
2023-01-24T14:51:50.539Z,2.36
2023-01-24T14:55:43.283Z,2.37
2023-01-24T14:59:13.043Z,2.26
2023-01-24T15:02:36.627Z,2.26
2023-01-24T15:06:03.340Z,2.26
2023-01-24T15:09:26.532Z,2.22
2023-01-24T15:12:48.048Z,2.27
2023-01-24T15:16:17.597Z,2.28
2023-01-24T15:19:39.463Z,2.21
2023-01-24T15:23:03.935Z,2.20
2023-01-24T15:26:37.916Z,2.16
2023-01-24T15:30:18.678Z,2.19
2023-01-24T15:33:42.871Z,2.23
2023-01-24T15:37:04.982Z,2.19
2023-01-24T15:40:26.542Z,2.19
2023-01-24T15:44:02.947Z,2.17
2023-01-24T15:47:44.351Z,2.08
2023-01-24T15:51:10.511Z,2.10
2023-01-24T15:54:32.841Z,2.13
2023-01-24T15:57:54.705Z,2.13
2023-01-24T16:01:18.087Z,2.17
2023-01-24T16:04:39.586Z,2.21
2023-01-24T16:08:01.571Z,2.14
2023-01-24T16:11:23.503Z,2.20
2023-01-24T16:14:58.767Z,2.23
2023-01-24T16:18:30.503Z,2.22
2023-01-24T16:21:52.957Z,2.24
2023-01-24T16:25:15.675Z,2.24
2023-01-24T16:28:37.163Z,2.26
2023-01-24T16:31:59.622Z,2.28
2023-01-24T16:35:23.492Z,2.19
2023-01-24T16:38:45.947Z,2.24
2023-01-24T16:42:07.567Z,2.23
2023-01-24T16:45:29.529Z,2.21
2023-01-24T16:48:51.192Z,2.22
2023-01-24T16:52:19.540Z,2.25
2023-01-24T16:55:42.079Z,2.25
2023-01-24T16:59:03.965Z,2.24
2023-01-24T17:02:25.895Z,2.26
2023-01-24T17:05:47.732Z,2.27
2023-01-24T17:09:11.316Z,2.28
2023-01-24T17:12:32.856Z,2.29
2023-01-24T17:15:54.760Z,2.29
2023-01-24T17:19:17.064Z,2.28
2023-01-24T17:22:39.002Z,2.27
2023-01-24T17:26:07.029Z,2.28
2023-01-24T17:29:29.369Z,2.28
2023-01-24T17:32:51.019Z,2.27
2023-01-24T17:36:14.133Z,2.27
2023-01-24T17:39:35.627Z,2.26
2023-01-24T17:42:58.903Z,2.22
2023-01-24T17:46:20.458Z,2.21
2023-01-24T17:49:42.235Z,2.22
2023-01-24T17:53:03.342Z,2.24
2023-01-24T17:56:25.004Z,2.24
2023-01-24T17:59:48.151Z,2.24
2023-01-24T18:03:10.874Z,2.23
2023-01-24T18:06:32.679Z,2.20
2023-01-24T18:09:54.298Z,2.21
2023-01-24T18:13:16.281Z,2.20
2023-01-24T18:16:39.877Z,2.18
2023-01-24T18:20:03.378Z,2.17
2023-01-24T18:23:25.373Z,2.15
2023-01-24T18:26:47.414Z,2.11
2023-01-24T18:30:10.793Z,2.13
2023-01-24T18:33:34.317Z,2.14
2023-01-24T18:36:56.239Z,2.17
2023-01-24T18:40:20.122Z,2.17
2023-01-24T18:43:41.866Z,2.07
2023-01-24T18:47:03.754Z,2.08
2023-01-24T18:50:28.303Z,2.07
2023-01-24T18:53:53.115Z,2.05
2023-01-24T18:57:14.927Z,2.01
2023-01-24T19:00:36.956Z,2.02
2023-01-24T19:03:58.924Z,2.03
2023-01-24T19:07:22.038Z,2.06
2023-01-24T19:10:44.082Z,2.09
2023-01-24T19:14:07.229Z,2.08
2023-01-24T19:17:29.395Z,2.09
2023-01-24T19:20:50.952Z,2.09
2023-01-24T19:24:14.714Z,2.10
2023-01-24T19:27:36.275Z,2.11
2023-01-24T19:30:57.977Z,2.10
2023-01-24T19:34:19.753Z,2.09
2023-01-24T19:37:41.702Z,2.09
2023-01-24T19:41:06.505Z,2.08
2023-01-24T19:44:28.571Z,2.08
2023-01-24T19:47:51.560Z,2.07
2023-01-24T19:51:13.311Z,2.07
2023-01-24T19:54:35.033Z,2.08
2023-01-24T19:57:57.690Z,2.05
2023-01-24T20:01:21.551Z,2.06
2023-01-24T20:04:52.090Z,1.99
2023-01-24T20:08:14.557Z,1.91
2023-01-24T20:11:36.381Z,1.96
2023-01-24T20:14:59.263Z,1.99
2023-01-24T20:18:21.025Z,2.01
2023-01-24T20:21:44.182Z,2.01
2023-01-24T20:25:17.601Z,2.02
2023-01-24T20:28:40.941Z,2.04
2023-01-24T20:32:11.791Z,2.06
2023-01-24T20:35:34.328Z,2.06
2023-01-24T20:38:57.080Z,2.07
2023-01-24T20:42:18.769Z,2.08
2023-01-24T20:45:40.370Z,2.03
2023-01-24T20:49:03.547Z,2.02
2023-01-24T20:52:25.306Z,2.02
2023-01-24T20:55:47.319Z,2.05
2023-01-24T20:59:10.411Z,2.06
2023-01-24T21:02:32.076Z,2.08
2023-01-24T21:05:55.207Z,2.06
2023-01-24T21:09:17.055Z,2.07
2023-01-24T21:12:38.370Z,2.09
2023-01-24T21:16:07.553Z,2.11
2023-01-24T21:19:29.892Z,2.11
2023-01-24T21:22:53.101Z,2.11
2023-01-24T21:26:16.243Z,2.10
2023-01-24T21:29:37.681Z,2.12
2023-01-24T21:32:59.096Z,2.13
2023-01-24T21:36:22.574Z,2.10
2023-01-24T21:39:45.653Z,2.10
2023-01-24T21:43:07.719Z,2.10
2023-01-24T21:46:29.943Z,2.09
2023-01-24T21:49:51.514Z,2.10
2023-01-24T21:53:32.832Z,2.11
2023-01-24T21:57:29.368Z,2.12
2023-01-24T22:00:51.634Z,2.14
2023-01-24T22:04:13.379Z,2.15
2023-01-24T22:07:35.108Z,2.14
2023-01-24T22:10:58.904Z,2.15
2023-01-24T22:14:23.978Z,2.12
2023-01-24T22:17:46.264Z,2.10
2023-01-24T22:21:16.074Z,2.11
2023-01-24T22:24:50.245Z,2.09
2023-01-24T22:28:17.580Z,2.15
2023-01-24T22:31:41.360Z,2.15
2023-01-24T22:35:03.067Z,2.11
2023-01-24T22:38:27.211Z,2.11
2023-01-24T22:41:48.826Z,2.12
2023-01-24T22:45:11.294Z,2.16
2023-01-24T22:48:34.903Z,2.22
2023-01-24T22:51:56.189Z,2.23
2023-01-24T22:55:18.315Z,2.19
2023-01-24T22:58:40.082Z,2.09
2023-01-24T23:02:02.220Z,2.07
2023-01-24T23:05:25.101Z,2.09
2023-01-24T23:08:50.791Z,2.08
2023-01-24T23:12:26.427Z,2.09
2023-01-24T23:16:06.390Z,2.10
2023-01-24T23:19:51.526Z,2.10
2023-01-24T23:23:14.326Z,2.11
2023-01-24T23:26:35.630Z,2.11
2023-01-24T23:30:08.965Z,2.12
2023-01-24T23:33:35.000Z,2.14
2023-01-24T23:36:56.532Z,2.15
2023-01-24T23:40:19.989Z,2.20
2023-01-24T23:43:41.711Z,2.24
2023-01-24T23:47:03.487Z,2.21
2023-01-24T23:50:24.854Z,2.19
2023-01-24T23:53:46.760Z,2.19
2023-01-24T23:57:09.538Z,2.21
